Ana Sayfa
METAR-TAF:

METAR-TAF

Havaalanları :

Front Royal, Virginia, Amerika Birleşik Devletleri

Enlem: 38-55-03N, Boylam: 078-15-12W, yükseklik: 216 m

Güncel hava durumu gözlemi

Rapor saat 19:55 UTC de 23 dakika önce yapıldı.
Rüzgar kuzey/kuzeydoğudan 7 kt
Sıcaklık 23°C
Nem 94%
Basınç 1012 hPa
Görüş mesafesi: 6.4 km
3200 ft yükseklikte parçalı bulutlu
6000 ft yükseklikte parçalı çok bulutlu
7000 ft yükseklikte çok bulutlu

METAR: KFRR 051955Z AUTO 03007KT 4SM SCT032 BKN060 OVC070 23/22 A2988 RMK AO1 P0016

Saat: 16:18 (20:18 UTC)


TAF: eksik

4.000'den fazla havaalanı için hava durumu gözlemleri ve tahminleri (METAR ve TAF raporları).

Kullanılabilir istasyonlar harita üzerinde sarı ve kırmızı noktalarla gösterilir.

İstasyonun adını görmek için fareyi noktanın üzerinde gezdirin.

Sonrasında hava gözlem ve tahminlerini görmek için tıklayın.

Haritayı değiştirmek için: yaklaştırmak için siyah artı işaretli yeşil düğmeye ve uzaklaştırmak için de eksi işaretli düğmeye hızla tıklayın; bitişik haritalar için yeşil okları kullanın.


METAR-TAF: